createdAt,value
2018-02-07T00:00:06.270Z,7.93
2018-02-07T00:00:37.781Z,7.78
2018-02-07T00:01:09.422Z,8.65
2018-02-07T00:01:41.064Z,7.57
2018-02-07T00:02:12.679Z,7.90
2018-02-07T00:02:44.307Z,7.80
2018-02-07T00:03:15.936Z,7.82
2018-02-07T00:03:47.569Z,7.65
2018-02-07T00:04:19.211Z,8.10
2018-02-07T00:04:50.839Z,8.95
2018-02-07T00:05:22.469Z,7.70
2018-02-07T00:05:54.133Z,8.23
2018-02-07T00:06:25.771Z,8.30
2018-02-07T00:06:57.399Z,8.23
2018-02-07T00:07:29.025Z,7.97
2018-02-07T00:08:00.657Z,8.13
2018-02-07T00:08:32.271Z,8.00
2018-02-07T00:09:03.965Z,8.40
2018-02-07T00:09:35.581Z,8.60
2018-02-07T00:10:07.239Z,8.70
2018-02-07T00:10:38.872Z,7.37
2018-02-07T00:11:10.491Z,7.87
2018-02-07T00:11:42.121Z,7.97
2018-02-07T00:12:13.733Z,8.40
2018-02-07T00:12:45.371Z,8.52
2018-02-07T00:13:17.009Z,8.05
2018-02-07T00:13:48.641Z,7.87
2018-02-07T00:14:20.284Z,7.90
2018-02-07T00:14:51.913Z,8.13
2018-02-07T00:15:23.529Z,7.90
2018-02-07T00:15:55.157Z,7.70
2018-02-07T00:16:26.755Z,7.90
2018-02-07T00:16:58.375Z,8.40
2018-02-07T00:17:30.011Z,8.65
2018-02-07T00:18:01.637Z,9.27
2018-02-07T00:18:33.283Z,9.35
2018-02-07T00:19:04.905Z,9.05
2018-02-07T00:19:36.513Z,8.07
2018-02-07T00:20:08.143Z,9.15
2018-02-07T00:20:39.767Z,7.72
2018-02-07T00:21:11.428Z,8.50
2018-02-07T00:21:43.050Z,9.50
2018-02-07T00:22:14.689Z,7.72
2018-02-07T00:22:46.311Z,7.10
2018-02-07T00:23:17.941Z,7.40
2018-02-07T00:23:49.573Z,8.02
2018-02-07T00:24:21.233Z,8.20
2018-02-07T00:24:52.886Z,7.47
2018-02-07T00:25:24.509Z,8.65
2018-02-07T00:25:56.127Z,8.02
2018-02-07T00:26:27.761Z,7.57
2018-02-07T00:26:59.421Z,7.25
2018-02-07T00:27:31.067Z,7.15
2018-02-07T00:28:02.679Z,7.65
2018-02-07T00:28:34.321Z,7.70
2018-02-07T00:29:05.937Z,8.00
2018-02-07T00:29:37.590Z,8.05
2018-02-07T00:30:09.215Z,8.00
2018-02-07T00:30:40.846Z,8.35
2018-02-07T00:31:12.466Z,7.00
2018-02-07T00:31:44.114Z,7.68
2018-02-07T00:32:15.717Z,7.62
2018-02-07T00:32:47.353Z,8.07
2018-02-07T00:33:19.007Z,7.78
2018-02-07T00:33:50.633Z,7.57
2018-02-07T00:34:22.245Z,9.32
2018-02-07T00:34:53.873Z,8.52
2018-02-07T00:35:25.513Z,8.35
2018-02-07T00:35:57.127Z,7.57
2018-02-07T00:36:28.761Z,7.78
2018-02-07T00:37:00.379Z,6.87
2018-02-07T00:37:31.997Z,7.55
2018-02-07T00:38:03.638Z,9.05
2018-02-07T00:38:35.251Z,8.07
2018-02-07T00:39:06.893Z,7.82
2018-02-07T00:39:38.513Z,8.10
2018-02-07T00:40:10.171Z,8.55
2018-02-07T00:40:41.805Z,8.75
2018-02-07T00:41:13.419Z,8.27
2018-02-07T00:41:45.049Z,8.05
2018-02-07T00:42:16.685Z,7.78
2018-02-07T00:42:48.311Z,8.93
2018-02-07T00:43:19.933Z,8.05
2018-02-07T00:43:51.557Z,8.35
2018-02-07T00:44:23.186Z,7.97
2018-02-07T00:44:54.825Z,8.07
2018-02-07T00:45:26.461Z,9.00
2018-02-07T00:45:58.067Z,9.13
2018-02-07T00:46:29.699Z,8.25
2018-02-07T00:47:01.320Z,8.10
2018-02-07T00:47:32.947Z,8.10
2018-02-07T00:48:04.589Z,8.48
2018-02-07T00:48:36.247Z,8.27
2018-02-07T00:49:07.863Z,7.85
2018-02-07T00:49:39.485Z,8.75
2018-02-07T00:50:11.133Z,7.75
2018-02-07T00:50:42.738Z,8.07
2018-02-07T00:51:14.373Z,7.80
2018-02-07T00:51:45.988Z,8.25
2018-02-07T00:52:17.629Z,7.72
2018-02-07T00:52:49.247Z,7.90
2018-02-07T00:53:20.868Z,7.20
2018-02-07T00:53:52.477Z,7.60
2018-02-07T00:54:24.091Z,7.20
2018-02-07T00:54:55.715Z,7.95
2018-02-07T00:55:27.361Z,8.10
2018-02-07T00:55:58.989Z,7.85
2018-02-07T00:56:30.595Z,8.35
2018-02-07T00:57:02.203Z,8.00
2018-02-07T00:57:33.809Z,8.45
2018-02-07T00:58:05.443Z,7.57
2018-02-07T00:58:37.113Z,8.82
2018-02-07T00:59:08.749Z,8.77
2018-02-07T00:59:40.367Z,7.57
2018-02-07T01:00:12.879Z,6.95
2018-02-07T01:00:44.484Z,8.35
2018-02-07T01:01:16.169Z,8.35
2018-02-07T01:01:47.797Z,8.02
2018-02-07T01:02:19.415Z,9.65
2018-02-07T01:02:51.091Z,8.27
2018-02-07T01:03:22.723Z,7.60
2018-02-07T01:03:54.373Z,7.95
2018-02-07T01:04:26.003Z,7.68
2018-02-07T01:04:57.621Z,7.90
2018-02-07T01:05:29.261Z,7.35
2018-02-07T01:06:00.877Z,8.07
2018-02-07T01:06:32.499Z,8.68
2018-02-07T01:07:04.141Z,9.07
2018-02-07T01:07:35.747Z,8.52
2018-02-07T01:08:07.357Z,8.15
2018-02-07T01:08:38.977Z,8.05
2018-02-07T01:09:10.595Z,8.05
2018-02-07T01:09:42.245Z,8.75
2018-02-07T01:10:13.881Z,7.30
2018-02-07T01:10:45.541Z,6.95
2018-02-07T01:11:17.163Z,7.53
2018-02-07T01:11:48.791Z,8.00
2018-02-07T01:12:20.447Z,7.82
2018-02-07T01:12:52.089Z,7.95
2018-02-07T01:13:23.717Z,8.07
2018-02-07T01:13:55.355Z,7.93
2018-02-07T01:14:26.997Z,8.35
2018-02-07T01:14:58.645Z,8.32
2018-02-07T01:15:30.324Z,8.00
2018-02-07T01:16:01.963Z,7.95
2018-02-07T01:16:33.603Z,8.23
2018-02-07T01:17:05.219Z,7.60
2018-02-07T01:17:36.879Z,8.45
2018-02-07T01:18:08.497Z,7.97
2018-02-07T01:18:40.118Z,7.53
2018-02-07T01:19:11.741Z,7.75
2018-02-07T01:19:43.359Z,7.85
2018-02-07T01:20:15.023Z,7.70
2018-02-07T01:20:46.641Z,8.60
2018-02-07T01:21:18.272Z,8.50
2018-02-07T01:21:49.877Z,7.60
2018-02-07T01:22:21.517Z,8.63
2018-02-07T01:22:53.111Z,7.93
2018-02-07T01:23:24.756Z,8.55
2018-02-07T01:23:56.377Z,8.35
2018-02-07T01:24:28.004Z,7.12
2018-02-07T01:24:59.655Z,8.55
2018-02-07T01:25:31.307Z,8.25
2018-02-07T01:26:02.935Z,7.75
2018-02-07T01:26:34.571Z,8.73
2018-02-07T01:27:06.173Z,7.20
2018-02-07T01:27:37.805Z,8.63
2018-02-07T01:28:09.423Z,7.72
2018-02-07T01:28:41.046Z,8.40
2018-02-07T01:29:12.701Z,8.65
2018-02-07T01:29:44.343Z,8.85
2018-02-07T01:30:15.965Z,8.45
2018-02-07T01:30:47.625Z,8.55
2018-02-07T01:31:19.252Z,8.15
2018-02-07T01:31:50.878Z,7.62
2018-02-07T01:32:22.491Z,8.35
2018-02-07T01:32:54.141Z,7.85
2018-02-07T01:33:25.759Z,8.57
2018-02-07T01:33:57.361Z,7.40
2018-02-07T01:34:28.985Z,8.30
2018-02-07T01:35:00.607Z,7.97
2018-02-07T01:35:32.239Z,8.15
2018-02-07T01:36:03.885Z,8.00
2018-02-07T01:36:35.521Z,8.18
2018-02-07T01:37:07.157Z,8.23
2018-02-07T01:37:38.791Z,8.32
2018-02-07T01:38:10.451Z,7.65
2018-02-07T01:38:42.081Z,8.40
2018-02-07T01:39:13.717Z,8.32
2018-02-07T01:39:45.359Z,8.13
2018-02-07T01:40:17.013Z,7.50
2018-02-07T01:40:48.661Z,8.38
2018-02-07T01:41:20.283Z,7.68
2018-02-07T01:41:51.909Z,7.45
2018-02-07T01:42:23.571Z,7.97
2018-02-07T01:42:55.198Z,7.35
2018-02-07T01:43:26.830Z,7.93
2018-02-07T01:43:58.450Z,7.55
2018-02-07T01:44:30.063Z,6.93
2018-02-07T01:45:01.677Z,7.70
2018-02-07T01:45:33.305Z,7.30
2018-02-07T01:46:04.935Z,7.40
2018-02-07T01:46:36.575Z,7.75
2018-02-07T01:47:08.217Z,7.78
2018-02-07T01:47:39.843Z,7.53
2018-02-07T01:48:11.487Z,8.05
2018-02-07T01:48:43.111Z,7.85
2018-02-07T01:49:14.739Z,7.85
2018-02-07T01:49:46.354Z,8.75
2018-02-07T01:50:17.990Z,8.00
2018-02-07T01:50:49.631Z,8.00
2018-02-07T01:51:21.256Z,8.18
2018-02-07T01:51:52.895Z,7.05
2018-02-07T01:52:24.517Z,8.43
2018-02-07T01:52:56.157Z,8.43
2018-02-07T01:53:27.773Z,7.32
2018-02-07T01:53:59.401Z,7.93
2018-02-07T01:54:31.045Z,7.18
2018-02-07T01:55:02.671Z,7.03
2018-02-07T01:55:34.287Z,8.25
2018-02-07T01:56:05.939Z,7.87
2018-02-07T01:56:37.603Z,7.87
2018-02-07T01:57:09.227Z,8.07
2018-02-07T01:57:40.849Z,7.35
2018-02-07T01:58:12.489Z,7.18
2018-02-07T01:58:44.183Z,7.50
2018-02-07T01:59:15.821Z,8.02
2018-02-07T01:59:47.463Z,7.45
2018-02-07T02:00:19.107Z,8.18
2018-02-07T02:00:50.755Z,7.75
2018-02-07T02:01:22.381Z,7.85
2018-02-07T02:01:54.039Z,7.57
2018-02-07T02:02:25.675Z,7.47
2018-02-07T02:02:57.301Z,7.87
2018-02-07T02:03:28.937Z,6.85
2018-02-07T02:04:00.571Z,8.45
2018-02-07T02:04:32.211Z,7.22
2018-02-07T02:05:03.847Z,7.40
2018-02-07T02:05:35.483Z,7.03
2018-02-07T02:06:07.103Z,7.12
2018-02-07T02:06:38.745Z,8.27
2018-02-07T02:07:10.370Z,8.00
2018-02-07T02:07:42.054Z,7.05
2018-02-07T02:08:13.707Z,7.62
2018-02-07T02:08:45.313Z,7.10
2018-02-07T02:09:16.934Z,7.82
2018-02-07T02:09:48.557Z,8.02
2018-02-07T02:10:20.181Z,7.57
2018-02-07T02:10:51.803Z,7.87
2018-02-07T02:11:23.433Z,7.62
2018-02-07T02:11:55.073Z,7.93
2018-02-07T02:12:26.689Z,8.13
2018-02-07T02:12:58.325Z,7.78
2018-02-07T02:13:29.939Z,7.37
2018-02-07T02:14:01.581Z,8.60
2018-02-07T02:14:33.208Z,7.93
2018-02-07T02:15:04.849Z,7.80
2018-02-07T02:15:36.508Z,7.97
2018-02-07T02:16:08.121Z,7.85
2018-02-07T02:16:39.729Z,7.28
2018-02-07T02:17:11.341Z,8.18
2018-02-07T02:17:42.975Z,8.05
2018-02-07T02:18:14.649Z,7.60
2018-02-07T02:18:46.265Z,8.52
2018-02-07T02:19:17.899Z,7.15
2018-02-07T02:19:49.531Z,7.95
2018-02-07T02:20:21.154Z,7.70
2018-02-07T02:20:52.789Z,7.07
2018-02-07T02:21:24.405Z,8.32
2018-02-07T02:21:56.029Z,7.93
2018-02-07T02:22:27.659Z,8.65
2018-02-07T02:22:59.282Z,7.43
2018-02-07T02:23:30.919Z,8.38
2018-02-07T02:24:02.547Z,7.93
2018-02-07T02:24:34.213Z,8.65
2018-02-07T02:25:05.851Z,7.87
2018-02-07T02:25:37.479Z,7.60
2018-02-07T02:26:09.087Z,7.87
2018-02-07T02:26:40.709Z,8.45
2018-02-07T02:27:12.321Z,8.65
2018-02-07T02:27:43.953Z,8.45
2018-02-07T02:28:15.591Z,7.87
2018-02-07T02:28:47.215Z,6.90
2018-02-07T02:29:18.841Z,7.97
2018-02-07T02:29:50.462Z,8.13
2018-02-07T02:30:22.079Z,8.20
2018-02-07T02:30:53.704Z,6.90
2018-02-07T02:31:25.323Z,9.32
2018-02-07T02:31:56.954Z,10.10
2018-02-07T02:32:28.573Z,6.90
2018-02-07T02:33:00.207Z,7.40
2018-02-07T02:33:31.831Z,7.40
2018-02-07T02:34:03.495Z,8.30
2018-02-07T02:34:35.152Z,7.93
2018-02-07T02:35:06.769Z,7.95
2018-02-07T02:35:38.481Z,8.55
2018-02-07T02:36:28.788Z,7.28
2018-02-07T02:37:00.349Z,9.35
2018-02-07T02:37:31.961Z,8.13
2018-02-07T02:38:03.569Z,8.07
2018-02-07T02:38:35.201Z,8.55
2018-02-07T02:39:06.824Z,8.18
2018-02-07T02:39:38.439Z,7.87
2018-02-07T02:40:10.073Z,8.35
2018-02-07T02:40:41.715Z,7.70
2018-02-07T02:41:13.385Z,8.77
2018-02-07T02:41:45.031Z,8.15
2018-02-07T02:42:16.641Z,8.77
2018-02-07T02:42:48.255Z,7.80
2018-02-07T02:43:19.876Z,7.68
2018-02-07T02:43:51.499Z,7.47
2018-02-07T02:44:23.123Z,8.10
2018-02-07T02:44:54.735Z,6.97
2018-02-07T02:45:26.338Z,8.23
2018-02-07T02:45:57.944Z,8.02
2018-02-07T02:46:29.593Z,8.65
2018-02-07T02:47:01.237Z,8.85
2018-02-07T02:47:32.853Z,8.60
2018-02-07T02:48:04.489Z,7.75
2018-02-07T02:48:36.093Z,7.22
2018-02-07T02:49:07.720Z,7.37
2018-02-07T02:49:39.329Z,7.60
2018-02-07T02:50:10.927Z,8.23
2018-02-07T02:50:42.553Z,8.13
2018-02-07T02:51:14.179Z,7.68
2018-02-07T02:51:45.805Z,8.10
2018-02-07T02:52:17.431Z,7.80
2018-02-07T02:52:49.060Z,7.82
2018-02-07T02:53:20.680Z,8.73
2018-02-07T02:53:52.307Z,8.50
2018-02-07T02:54:23.917Z,7.57
2018-02-07T02:54:55.557Z,7.45
2018-02-07T02:55:27.161Z,7.70
2018-02-07T02:55:58.789Z,8.52
2018-02-07T02:56:30.407Z,7.35
2018-02-07T02:57:02.025Z,7.50
2018-02-07T02:57:33.636Z,8.32
2018-02-07T02:58:05.257Z,7.82
2018-02-07T02:58:36.945Z,7.53
2018-02-07T02:59:08.561Z,7.95
2018-02-07T02:59:40.197Z,8.00
2018-02-07T03:00:11.865Z,8.38
2018-02-07T03:00:43.485Z,7.72
2018-02-07T03:01:15.144Z,7.62
2018-02-07T03:01:46.761Z,7.45
2018-02-07T03:02:18.396Z,7.37
2018-02-07T03:02:50.048Z,7.53
2018-02-07T03:03:21.691Z,7.87
2018-02-07T03:03:53.328Z,8.15
2018-02-07T03:04:24.947Z,9.38
2018-02-07T03:04:56.597Z,7.25
2018-02-07T03:05:28.233Z,7.57
2018-02-07T03:05:59.861Z,7.70
2018-02-07T03:06:31.455Z,7.68
2018-02-07T03:07:03.159Z,8.38
2018-02-07T03:07:35.025Z,7.22
2018-02-07T03:08:06.651Z,7.40
2018-02-07T03:08:38.347Z,8.02
2018-02-07T03:09:09.973Z,8.75
2018-02-07T03:09:41.625Z,8.20
2018-02-07T03:10:13.263Z,8.27
2018-02-07T03:10:44.911Z,8.30
2018-02-07T03:11:16.539Z,7.35
2018-02-07T03:11:48.157Z,7.80
2018-02-07T03:12:19.799Z,7.35
2018-02-07T03:12:51.453Z,7.25
2018-02-07T03:13:23.072Z,7.57
2018-02-07T03:13:54.699Z,7.70
2018-02-07T03:14:26.313Z,7.72
2018-02-07T03:14:57.935Z,8.27
2018-02-07T03:15:29.561Z,9.20
2018-02-07T03:16:01.209Z,9.07
2018-02-07T03:16:32.845Z,8.10
2018-02-07T03:17:04.474Z,8.15
2018-02-07T03:17:36.089Z,8.60
2018-02-07T03:18:07.704Z,8.75
2018-02-07T03:18:39.323Z,8.75
2018-02-07T03:19:10.933Z,7.40
2018-02-07T03:19:42.551Z,9.68
2018-02-07T03:20:14.169Z,9.13
2018-02-07T03:20:45.813Z,9.77
2018-02-07T03:21:17.429Z,9.15
2018-02-07T03:21:49.049Z,9.45
2018-02-07T03:22:20.677Z,8.30
2018-02-07T03:22:52.297Z,9.48
2018-02-07T03:23:23.895Z,9.60
2018-02-07T03:23:55.805Z,8.40
2018-02-07T03:24:27.501Z,8.63
2018-02-07T03:24:59.135Z,8.70
2018-02-07T03:25:30.737Z,8.70
2018-02-07T03:26:02.357Z,9.27
2018-02-07T03:26:34.013Z,9.30
2018-02-07T03:27:05.615Z,8.63
2018-02-07T03:27:37.231Z,8.02
2018-02-07T03:28:08.833Z,8.40
2018-02-07T03:28:40.455Z,8.52
2018-02-07T03:29:12.069Z,8.60
2018-02-07T03:29:43.691Z,8.90
2018-02-07T03:30:15.312Z,9.35
2018-02-07T03:30:46.915Z,8.77
2018-02-07T03:31:18.535Z,8.35
2018-02-07T03:31:50.171Z,8.48
2018-02-07T03:32:21.787Z,9.13
2018-02-07T03:32:53.395Z,8.27
2018-02-07T03:33:25.115Z,8.82
2018-02-07T03:33:56.727Z,8.85
2018-02-07T03:34:28.343Z,9.57
2018-02-07T03:34:59.961Z,8.75
2018-02-07T03:35:31.594Z,8.85
2018-02-07T03:36:03.247Z,9.40
2018-02-07T03:36:34.875Z,9.00
2018-02-07T03:37:06.491Z,8.46
2018-02-07T03:37:38.115Z,8.55
2018-02-07T03:38:09.743Z,9.07
2018-02-07T03:38:41.387Z,9.63
2018-02-07T03:39:12.997Z,9.75
2018-02-07T03:39:44.641Z,9.20
2018-02-07T03:40:16.280Z,9.32
2018-02-07T03:40:47.887Z,8.25
2018-02-07T03:41:19.503Z,8.52
2018-02-07T03:41:51.139Z,9.07
2018-02-07T03:42:22.786Z,9.10
2018-02-07T03:42:54.415Z,8.65
2018-02-07T03:43:26.058Z,8.65
2018-02-07T03:43:57.673Z,8.57
2018-02-07T03:44:29.289Z,8.25
2018-02-07T03:45:00.917Z,9.88
2018-02-07T03:45:32.531Z,8.25
2018-02-07T03:46:04.149Z,8.77
2018-02-07T03:46:35.775Z,8.20
2018-02-07T03:47:07.401Z,8.50
2018-02-07T03:47:39.049Z,8.05
2018-02-07T03:48:10.671Z,7.87
2018-02-07T03:48:42.281Z,8.80
2018-02-07T03:49:13.909Z,7.55
2018-02-07T03:49:45.527Z,7.93
2018-02-07T03:50:17.179Z,8.07
2018-02-07T03:50:48.816Z,8.10
2018-02-07T03:56:11.917Z,8.30
2018-02-07T03:56:43.529Z,8.60
2018-02-07T03:57:15.149Z,8.73
2018-02-07T03:57:46.779Z,8.70
2018-02-07T03:58:18.421Z,9.07
2018-02-07T03:58:50.055Z,8.82
2018-02-07T03:59:21.677Z,8.48
2018-02-07T03:59:53.297Z,8.73
2018-02-07T04:00:24.934Z,9.20
2018-02-07T04:00:56.547Z,9.23
2018-02-07T04:01:28.166Z,8.72
2018-02-07T04:01:59.795Z,9.05
2018-02-07T04:02:31.448Z,9.48
2018-02-07T04:03:03.077Z,8.82
2018-02-07T04:03:35.658Z,9.32
2018-02-07T04:04:07.307Z,8.98
2018-02-07T04:04:38.936Z,8.13
2018-02-07T04:05:10.563Z,9.80
2018-02-07T04:05:42.195Z,9.30
2018-02-07T04:06:13.811Z,8.88
2018-02-07T04:06:45.419Z,9.00
2018-02-07T04:07:17.061Z,10.23
2018-02-07T04:07:48.661Z,9.75
2018-02-07T04:08:20.269Z,9.30
2018-02-07T04:08:51.907Z,9.00
2018-02-07T04:09:23.549Z,10.05
2018-02-07T04:09:55.169Z,9.13
2018-02-07T04:10:26.769Z,10.18
2018-02-07T04:10:58.371Z,10.20
2018-02-07T04:11:29.980Z,9.60
2018-02-07T04:12:01.585Z,9.98
2018-02-07T04:12:33.217Z,9.38
2018-02-07T04:13:04.835Z,9.02
2018-02-07T04:13:36.451Z,8.57
2018-02-07T04:14:08.063Z,8.73
2018-02-07T04:14:39.665Z,9.05
2018-02-07T04:15:11.318Z,8.75
2018-02-07T04:15:42.929Z,8.35
2018-02-07T04:16:14.543Z,8.82
2018-02-07T04:16:46.169Z,7.78
2018-02-07T04:17:17.783Z,9.00
2018-02-07T04:17:49.393Z,7.70
2018-02-07T04:18:21.009Z,9.20
2018-02-07T04:18:52.627Z,9.05
2018-02-07T04:19:24.277Z,8.75
2018-02-07T04:19:55.899Z,9.80
2018-02-07T04:20:27.535Z,8.45
2018-02-07T04:20:59.157Z,8.88
2018-02-07T04:21:30.765Z,8.93
2018-02-07T04:22:02.401Z,8.35
2018-02-07T04:22:34.016Z,8.10
2018-02-07T04:23:05.709Z,7.60
2018-02-07T04:23:37.385Z,8.38
2018-02-07T04:24:08.995Z,8.60
2018-02-07T04:24:40.617Z,9.40
2018-02-07T04:25:12.247Z,8.73
2018-02-07T04:25:43.851Z,8.35
2018-02-07T04:26:15.470Z,7.75
2018-02-07T04:26:47.099Z,8.43
2018-02-07T04:27:18.713Z,8.77
2018-02-07T04:27:50.349Z,8.35
2018-02-07T04:28:21.957Z,7.97
2018-02-07T04:28:53.587Z,7.68
2018-02-07T04:29:25.219Z,9.40
2018-02-07T04:29:56.853Z,8.38
2018-02-07T04:30:28.485Z,8.82
2018-02-07T04:31:00.089Z,8.60
2018-02-07T04:31:31.705Z,8.95
2018-02-07T04:32:03.332Z,7.47
2018-02-07T04:32:34.963Z,9.10
2018-02-07T04:33:06.571Z,8.25
2018-02-07T04:33:38.261Z,7.78
2018-02-07T04:34:09.869Z,8.27
2018-02-07T04:34:41.487Z,7.87
2018-02-07T04:35:13.117Z,8.95
2018-02-07T04:35:44.739Z,9.02
2018-02-07T04:36:16.365Z,9.00
2018-02-07T04:36:48.001Z,8.77
2018-02-07T04:37:19.620Z,8.30
2018-02-07T04:37:51.270Z,9.00
2018-02-07T04:38:22.887Z,7.90
2018-02-07T04:38:54.507Z,8.35
2018-02-07T04:39:26.196Z,8.13
2018-02-07T04:39:57.853Z,7.80
2018-02-07T04:40:29.471Z,8.05
2018-02-07T04:41:01.075Z,7.90
2018-02-07T04:41:32.687Z,8.32
2018-02-07T04:42:04.321Z,8.60
2018-02-07T04:42:35.931Z,7.95
2018-02-07T04:43:07.577Z,7.90
2018-02-07T04:43:39.193Z,8.60
2018-02-07T04:44:10.813Z,8.23
2018-02-07T04:44:42.431Z,7.93
2018-02-07T04:45:14.081Z,8.75
2018-02-07T04:45:45.706Z,8.40
2018-02-07T04:46:17.321Z,7.55
2018-02-07T04:46:48.949Z,8.38
2018-02-07T04:47:20.572Z,8.10
2018-02-07T04:47:52.201Z,9.60
2018-02-07T04:48:23.838Z,8.55
2018-02-07T04:48:55.465Z,8.25
2018-02-07T04:49:27.097Z,7.50
2018-02-07T04:49:58.715Z,8.68
2018-02-07T04:50:30.339Z,8.90
2018-02-07T04:51:01.989Z,7.80
2018-02-07T04:51:33.601Z,8.63
2018-02-07T04:52:05.221Z,8.25
2018-02-07T04:52:36.857Z,8.38
2018-02-07T04:53:08.495Z,8.48
2018-02-07T04:53:40.109Z,9.13
2018-02-07T04:54:11.711Z,8.75
2018-02-07T04:54:43.312Z,8.45
2018-02-07T04:55:14.919Z,8.48
2018-02-07T04:55:46.529Z,8.55
2018-02-07T04:56:18.161Z,9.07
2018-02-07T04:56:49.775Z,8.93
2018-02-07T04:57:21.379Z,8.43
2018-02-07T04:57:53.016Z,9.23
2018-02-07T04:58:24.613Z,9.15
2018-02-07T04:58:56.229Z,9.82
2018-02-07T04:59:27.844Z,7.90
2018-02-07T04:59:59.455Z,8.50
2018-02-07T05:00:31.069Z,8.95
2018-02-07T05:01:02.693Z,9.25
2018-02-07T05:01:34.345Z,9.32
2018-02-07T05:02:05.953Z,9.23
2018-02-07T05:02:37.569Z,8.40
2018-02-07T05:03:09.191Z,9.30
2018-02-07T05:03:40.837Z,8.43
2018-02-07T05:04:12.447Z,9.20
2018-02-07T05:04:44.119Z,10.07
2018-02-07T05:05:15.745Z,9.45
2018-02-07T05:05:47.355Z,9.65
2018-02-07T05:06:18.973Z,8.32
2018-02-07T05:06:50.603Z,9.72
2018-02-07T05:07:22.217Z,9.30
2018-02-07T05:07:53.832Z,10.18
2018-02-07T05:08:25.459Z,9.32
2018-02-07T05:08:57.076Z,8.45
2018-02-07T05:09:28.693Z,9.25
2018-02-07T05:10:00.344Z,8.70
2018-02-07T05:10:31.955Z,9.35
2018-02-07T05:11:03.590Z,9.35
2018-02-07T05:11:35.221Z,10.35
2018-02-07T05:12:06.871Z,9.07
2018-02-07T05:12:38.508Z,9.25
2018-02-07T05:13:10.146Z,9.50
2018-02-07T05:13:41.759Z,9.95
2018-02-07T05:14:13.365Z,9.63
2018-02-07T05:14:44.989Z,8.27
2018-02-07T05:15:16.616Z,8.65
2018-02-07T05:15:48.229Z,8.65
2018-02-07T05:16:19.853Z,9.13
2018-02-07T05:16:51.477Z,9.68
2018-02-07T05:17:23.113Z,8.27
2018-02-07T05:17:54.727Z,8.88
2018-02-07T05:18:26.353Z,8.93
2018-02-07T05:18:57.974Z,8.70
2018-02-07T05:19:29.589Z,9.10
2018-02-07T05:20:01.213Z,9.20
2018-02-07T05:20:32.833Z,8.50
2018-02-07T05:21:04.453Z,8.90
2018-02-07T05:21:36.069Z,9.90
2018-02-07T05:22:07.686Z,8.93
2018-02-07T05:22:39.307Z,8.95
2018-02-07T05:23:10.932Z,8.15
2018-02-07T05:23:42.569Z,8.45
2018-02-07T05:24:14.163Z,9.55
2018-02-07T05:24:45.773Z,9.65
2018-02-07T05:25:17.391Z,9.27
2018-02-07T05:25:49.013Z,8.45
2018-02-07T05:26:20.643Z,8.90
2018-02-07T05:26:52.256Z,9.70
2018-02-07T05:27:23.851Z,9.13
2018-02-07T05:27:55.482Z,9.38
2018-02-07T05:28:27.084Z,9.40
2018-02-07T05:28:58.721Z,8.73
2018-02-07T05:29:30.321Z,9.75
2018-02-07T05:30:01.963Z,9.27
2018-02-07T05:30:33.593Z,9.85
2018-02-07T05:31:05.241Z,9.40
2018-02-07T05:31:36.845Z,9.65
2018-02-07T05:32:08.481Z,9.85
2018-02-07T05:32:40.097Z,9.52
2018-02-07T05:33:11.708Z,8.60
2018-02-07T05:33:43.333Z,8.85
2018-02-07T05:34:14.937Z,9.95
2018-02-07T05:34:46.567Z,8.98
2018-02-07T05:35:18.199Z,8.52
2018-02-07T05:35:49.801Z,9.30
2018-02-07T05:36:21.427Z,9.13
2018-02-07T05:36:53.045Z,8.85
2018-02-07T05:37:24.652Z,8.95
2018-02-07T05:37:56.275Z,9.52
2018-02-07T05:38:27.903Z,9.48
2018-02-07T05:38:59.517Z,9.65
2018-02-07T05:39:31.138Z,10.18
2018-02-07T05:40:02.765Z,9.70
2018-02-07T05:40:34.379Z,9.38
2018-02-07T05:41:05.997Z,8.82
2018-02-07T05:41:37.593Z,9.00
2018-02-07T05:42:09.242Z,10.20
2018-02-07T05:42:40.875Z,9.40
2018-02-07T05:43:12.507Z,8.63
2018-02-07T05:43:44.123Z,9.10
2018-02-07T05:44:15.743Z,10.60
2018-02-07T05:44:47.359Z,9.68
2018-02-07T05:45:19.006Z,9.05
2018-02-07T05:45:50.590Z,9.90
2018-02-07T05:46:22.235Z,10.15
2018-02-07T05:46:53.845Z,9.25
2018-02-07T05:47:25.469Z,9.63
2018-02-07T05:47:57.075Z,8.93
2018-02-07T05:48:28.687Z,8.15
2018-02-07T05:49:00.307Z,9.02
2018-02-07T05:49:31.941Z,9.18
2018-02-07T05:50:03.609Z,8.38
2018-02-07T05:50:35.245Z,8.36
2018-02-07T05:51:06.865Z,9.20
2018-02-07T05:51:38.485Z,8.32
2018-02-07T05:52:10.082Z,9.68
2018-02-07T05:52:41.695Z,8.98
2018-02-07T05:53:13.311Z,9.85
2018-02-07T05:53:44.920Z,8.68
2018-02-07T05:54:16.551Z,9.52
2018-02-07T05:54:48.157Z,9.27
2018-02-07T05:55:19.765Z,9.77
2018-02-07T05:55:51.379Z,8.80
2018-02-07T05:56:22.991Z,9.27
2018-02-07T05:56:54.582Z,9.50
2018-02-07T05:57:26.191Z,8.55
2018-02-07T05:57:57.815Z,8.98
2018-02-07T05:58:29.495Z,9.65
2018-02-07T05:59:01.099Z,9.02
2018-02-07T05:59:32.723Z,7.72
2018-02-07T06:00:04.365Z,8.27
2018-02-07T06:00:36.017Z,9.73
2018-02-07T06:01:07.651Z,9.63
2018-02-07T06:01:39.258Z,9.68
2018-02-07T06:02:10.885Z,9.10
2018-02-07T06:02:42.547Z,10.38
2018-02-07T06:03:14.167Z,8.68
2018-02-07T06:03:45.809Z,9.20
2018-02-07T06:04:17.407Z,9.23
2018-02-07T06:04:49.045Z,9.50
2018-02-07T06:05:20.647Z,9.07
2018-02-07T06:05:52.242Z,8.90
2018-02-07T06:06:23.861Z,8.98
2018-02-07T06:06:55.481Z,9.23
2018-02-07T06:07:27.101Z,9.00
2018-02-07T06:07:58.720Z,8.55
2018-02-07T06:08:30.319Z,8.68
2018-02-07T06:09:01.949Z,8.90
2018-02-07T06:09:33.591Z,8.90
2018-02-07T06:10:05.223Z,9.10
2018-02-07T06:10:36.863Z,8.40
2018-02-07T06:11:08.475Z,9.70
2018-02-07T06:11:40.077Z,9.50
2018-02-07T06:12:11.693Z,10.50
2018-02-07T06:12:43.313Z,9.43
2018-02-07T06:13:14.927Z,9.70
2018-02-07T06:13:46.555Z,9.68
2018-02-07T06:14:18.157Z,9.10
2018-02-07T06:14:49.781Z,9.48
2018-02-07T06:15:21.435Z,9.32
2018-02-07T06:15:53.071Z,10.30
2018-02-07T06:16:24.678Z,9.80
2018-02-07T06:16:56.287Z,9.93
2018-02-07T06:17:27.905Z,9.20
2018-02-07T06:17:59.511Z,9.43
2018-02-07T06:18:31.137Z,9.32
2018-02-07T06:19:02.757Z,8.95
2018-02-07T06:19:34.365Z,9.32
2018-02-07T06:20:06.022Z,9.32
2018-02-07T06:20:37.629Z,9.23
2018-02-07T06:21:09.253Z,8.98
2018-02-07T06:21:40.863Z,8.90
2018-02-07T06:22:12.478Z,9.48
2018-02-07T06:22:44.083Z,8.73
2018-02-07T06:23:15.700Z,9.07
2018-02-07T06:23:47.341Z,8.93
2018-02-07T06:24:18.962Z,9.88
2018-02-07T06:24:50.568Z,9.80
2018-02-07T06:25:22.194Z,9.35
2018-02-07T06:25:53.825Z,9.45
2018-02-07T06:26:25.451Z,8.75
2018-02-07T06:26:57.059Z,9.20
2018-02-07T06:27:28.687Z,9.73
2018-02-07T06:28:00.327Z,11.05
2018-02-07T06:28:31.945Z,9.45
2018-02-07T06:29:03.581Z,10.02
2018-02-07T06:29:35.199Z,9.68
2018-02-07T06:30:06.846Z,9.38
2018-02-07T06:30:38.477Z,9.70
2018-02-07T06:31:10.102Z,8.68
2018-02-07T06:31:41.721Z,10.02
2018-02-07T06:32:13.345Z,9.25
2018-02-07T06:32:44.954Z,8.82
2018-02-07T06:33:16.567Z,9.10
2018-02-07T06:33:48.187Z,9.02
2018-02-07T06:34:19.797Z,9.45
2018-02-07T06:34:51.431Z,11.52
2018-02-07T06:35:23.055Z,9.20
2018-02-07T06:35:54.692Z,9.23
2018-02-07T06:36:26.353Z,9.00
2018-02-07T06:36:57.971Z,8.18
2018-02-07T06:37:29.601Z,8.57
2018-02-07T06:38:01.221Z,8.82
2018-02-07T06:38:32.833Z,10.05
2018-02-07T06:39:04.497Z,8.68
2018-02-07T06:39:36.147Z,9.65
2018-02-07T06:40:07.763Z,10.75
2018-02-07T06:40:39.393Z,9.10
2018-02-07T06:41:11.013Z,9.45
2018-02-07T06:41:42.622Z,9.10
2018-02-07T06:42:14.247Z,9.55
2018-02-07T06:42:45.897Z,10.02
2018-02-07T06:43:17.529Z,8.20
2018-02-07T06:43:49.142Z,8.57
2018-02-07T06:44:20.753Z,9.57
2018-02-07T06:44:52.400Z,9.30
2018-02-07T06:45:24.015Z,10.40
2018-02-07T06:45:55.647Z,10.10
2018-02-07T06:46:27.293Z,9.40
2018-02-07T06:46:58.972Z,10.18
2018-02-07T06:47:30.587Z,9.70
2018-02-07T06:48:02.209Z,9.48
2018-02-07T06:48:33.825Z,9.93
2018-02-07T06:49:05.455Z,10.30
2018-02-07T06:49:37.083Z,8.95
2018-02-07T06:50:08.707Z,9.77
2018-02-07T06:50:40.327Z,10.27
2018-02-07T06:51:11.927Z,10.73
2018-02-07T06:51:43.535Z,10.23
2018-02-07T06:52:15.195Z,10.63
2018-02-07T06:52:46.819Z,9.98
2018-02-07T06:53:18.446Z,10.93
2018-02-07T06:53:50.071Z,9.80
2018-02-07T06:54:21.696Z,10.48
2018-02-07T06:54:53.313Z,9.73
2018-02-07T06:55:24.933Z,10.20
2018-02-07T06:55:56.557Z,11.35
2018-02-07T06:56:28.158Z,9.85
2018-02-07T06:56:59.768Z,10.70
2018-02-07T06:57:31.435Z,11.15
2018-02-07T06:58:03.065Z,10.70
2018-02-07T06:58:34.665Z,8.85
2018-02-07T06:59:06.273Z,9.38
2018-02-07T06:59:37.897Z,10.25
2018-02-07T07:00:09.508Z,9.98
2018-02-07T07:00:41.183Z,9.30
2018-02-07T07:01:12.823Z,10.50
2018-02-07T07:01:44.469Z,10.73
2018-02-07T07:02:16.084Z,9.88
2018-02-07T07:02:47.727Z,8.88
2018-02-07T07:03:19.370Z,9.75
2018-02-07T07:03:50.985Z,9.82
2018-02-07T07:04:22.613Z,9.48
2018-02-07T07:04:54.226Z,10.65
2018-02-07T07:05:25.873Z,10.18